createdAt,value
2019-02-03T00:00:18.412Z,869.71
2019-02-03T00:01:18.399Z,869.64
2019-02-03T00:02:18.382Z,869.59
2019-02-03T00:03:18.360Z,869.56
2019-02-03T00:04:18.349Z,869.51
2019-02-03T00:05:18.323Z,869.46
2019-02-03T00:06:18.311Z,869.43
2019-02-03T00:07:18.293Z,869.43
2019-02-03T00:08:18.277Z,869.44
2019-02-03T00:09:18.259Z,869.44
2019-02-03T00:10:18.241Z,869.50
2019-02-03T00:11:18.222Z,869.53
2019-02-03T00:12:18.202Z,869.54
2019-02-03T00:13:18.192Z,869.51
2019-02-03T00:14:18.170Z,869.46
2019-02-03T00:15:18.152Z,869.41
2019-02-03T00:16:18.136Z,869.43
2019-02-03T00:17:18.113Z,869.43
2019-02-03T00:18:18.099Z,869.42
2019-02-03T00:19:18.077Z,869.46
2019-02-03T00:20:18.063Z,869.46
2019-02-03T00:21:18.046Z,869.50
2019-02-03T00:22:18.025Z,869.56
2019-02-03T00:23:18.011Z,869.55
2019-02-03T00:24:17.991Z,869.53
2019-02-03T00:25:17.977Z,869.55
2019-02-03T00:26:17.994Z,869.50
2019-02-03T00:27:17.939Z,869.47
2019-02-03T00:28:17.915Z,869.32
2019-02-03T00:29:17.902Z,869.15
2019-02-03T00:30:17.883Z,868.91
2019-02-03T00:31:17.863Z,868.72
2019-02-03T00:32:17.847Z,868.50
2019-02-03T00:33:17.827Z,868.37
2019-02-03T00:34:17.815Z,868.36
2019-02-03T00:35:17.799Z,868.34
2019-02-03T00:36:17.778Z,868.42
2019-02-03T00:37:17.756Z,868.39
2019-02-03T00:38:22.924Z,868.48
2019-02-03T00:39:17.745Z,868.55
2019-02-03T00:40:17.915Z,868.59
2019-02-03T00:41:17.693Z,868.64
2019-02-03T00:42:17.666Z,868.73
2019-02-03T00:43:17.648Z,868.77
2019-02-03T00:44:18.670Z,868.86
2019-02-03T00:45:17.623Z,868.84
2019-02-03T00:46:17.596Z,868.84
2019-02-03T00:47:17.581Z,868.83
2019-02-03T00:48:17.565Z,868.84
2019-02-03T00:49:17.553Z,868.82
2019-02-03T00:50:17.529Z,868.77
2019-02-03T00:51:17.511Z,868.75
2019-02-03T00:52:17.496Z,868.85
2019-02-03T00:53:17.474Z,868.92
2019-02-03T00:54:17.460Z,869.01
2019-02-03T00:55:17.442Z,869.11
2019-02-03T00:56:17.425Z,869.18
2019-02-03T00:57:17.405Z,869.21
2019-02-03T00:58:17.385Z,869.24
2019-02-03T00:59:17.370Z,869.29
2019-02-03T01:00:17.356Z,869.33
2019-02-03T01:01:17.328Z,869.35
2019-02-03T01:02:17.309Z,869.40
2019-02-03T01:03:17.294Z,869.37
2019-02-03T01:04:17.278Z,869.45
2019-02-03T01:05:17.258Z,869.45
2019-02-03T01:06:17.243Z,869.52
2019-02-03T01:07:27.094Z,869.56
2019-02-03T01:08:17.205Z,869.57
2019-02-03T01:09:17.188Z,869.66
2019-02-03T01:10:17.167Z,869.67
2019-02-03T01:11:17.151Z,869.65
2019-02-03T01:12:17.129Z,869.68
2019-02-03T01:13:17.113Z,869.71
2019-02-03T01:14:17.098Z,869.74
2019-02-03T01:15:17.074Z,869.76
2019-02-03T01:16:17.062Z,869.83
2019-02-03T01:17:17.040Z,869.82
2019-02-03T01:18:17.026Z,869.86
2019-02-03T01:19:17.006Z,869.87
2019-02-03T01:20:16.988Z,869.92
2019-02-03T01:21:16.966Z,869.89
2019-02-03T01:22:16.944Z,869.89
2019-02-03T01:23:16.932Z,869.89
2019-02-03T01:24:16.921Z,869.91
2019-02-03T01:25:16.890Z,869.89
2019-02-03T01:26:16.880Z,869.90
2019-02-03T01:27:16.859Z,869.91
2019-02-03T01:28:16.839Z,869.95
2019-02-03T01:29:16.817Z,869.93
2019-02-03T01:30:16.805Z,869.92
2019-02-03T01:31:16.785Z,869.89
2019-02-03T01:32:16.770Z,869.89
2019-02-03T01:33:16.758Z,869.88
2019-02-03T01:34:16.730Z,869.85
2019-02-03T01:35:16.712Z,869.86
2019-02-03T01:36:16.692Z,869.84
2019-02-03T01:37:16.683Z,869.81
2019-02-03T01:38:16.656Z,869.83
2019-02-03T01:39:16.642Z,869.82
2019-02-03T01:40:16.623Z,869.82
2019-02-03T01:41:16.622Z,869.90
2019-02-03T01:42:16.589Z,869.88
2019-02-03T01:43:16.571Z,869.91
2019-02-03T01:44:16.549Z,869.93
2019-02-03T01:45:16.539Z,869.89
2019-02-03T01:46:16.519Z,869.96
2019-02-03T01:47:16.501Z,869.90
2019-02-03T01:48:16.480Z,869.95
2019-02-03T01:49:16.460Z,869.94
2019-02-03T01:50:16.441Z,869.95
2019-02-03T01:51:16.420Z,869.95
2019-02-03T01:52:16.409Z,869.95
2019-02-03T01:53:16.490Z,869.93
2019-02-03T01:54:16.392Z,869.95
2019-02-03T01:55:16.354Z,869.94
2019-02-03T01:56:16.333Z,869.96
2019-02-03T01:57:16.317Z,869.95
2019-02-03T01:58:16.306Z,869.94
2019-02-03T01:59:16.283Z,869.95
2019-02-03T02:00:16.265Z,869.98
2019-02-03T02:01:16.242Z,869.96
2019-02-03T02:02:16.221Z,870.00
2019-02-03T02:03:16.207Z,870.03
2019-02-03T02:04:16.192Z,870.04
2019-02-03T02:05:16.174Z,870.06
2019-02-03T02:06:16.160Z,870.11
2019-02-03T02:07:16.139Z,870.10
2019-02-03T02:08:16.120Z,870.10
2019-02-03T02:09:16.104Z,870.12
2019-02-03T02:10:16.081Z,870.13
2019-02-03T02:11:16.069Z,870.14
2019-02-03T02:12:16.048Z,870.14
2019-02-03T02:13:16.159Z,870.12
2019-02-03T02:14:16.011Z,870.13
2019-02-03T02:15:15.992Z,870.10
2019-02-03T02:16:15.975Z,870.14
2019-02-03T02:17:15.953Z,870.17
2019-02-03T02:18:15.938Z,870.18
2019-02-03T02:19:15.918Z,870.20
2019-02-03T02:20:15.904Z,870.24
2019-02-03T02:21:15.884Z,870.28
2019-02-03T02:22:15.866Z,870.28
2019-02-03T02:23:15.847Z,870.31
2019-02-03T02:24:15.830Z,870.33
2019-02-03T02:25:15.813Z,870.29
2019-02-03T02:26:15.796Z,870.29
2019-02-03T02:27:15.782Z,870.34
2019-02-03T02:28:15.755Z,870.29
2019-02-03T02:29:15.737Z,870.32
2019-02-03T02:30:15.722Z,870.30
2019-02-03T02:31:15.701Z,870.32
2019-02-03T02:32:15.682Z,870.31
2019-02-03T02:33:15.667Z,870.33
2019-02-03T02:34:15.647Z,870.31
2019-02-03T02:35:15.626Z,870.36
2019-02-03T02:36:15.617Z,870.39
2019-02-03T02:37:15.677Z,870.35
2019-02-03T02:38:15.582Z,870.38
2019-02-03T02:39:15.554Z,870.38
2019-02-03T02:40:15.537Z,870.39
2019-02-03T02:41:15.526Z,870.36
2019-02-03T02:42:15.509Z,870.35
2019-02-03T02:43:15.488Z,870.32
2019-02-03T02:44:15.468Z,870.33
2019-02-03T02:45:15.446Z,870.31
2019-02-03T02:46:15.435Z,870.29
2019-02-03T02:47:15.410Z,870.32
2019-02-03T02:48:15.392Z,870.34
2019-02-03T02:49:15.376Z,870.35
2019-02-03T02:50:15.361Z,870.38
2019-02-03T02:51:15.339Z,870.36
2019-02-03T02:52:15.319Z,870.37
2019-02-03T02:53:15.303Z,870.34
2019-02-03T02:54:15.281Z,870.34
2019-02-03T02:55:15.262Z,870.36
2019-02-03T02:56:15.244Z,870.39
2019-02-03T02:57:15.236Z,870.36
2019-02-03T02:58:15.209Z,870.39
2019-02-03T02:59:15.190Z,870.41
2019-02-03T03:00:17.336Z,870.42
2019-02-03T03:01:15.153Z,870.41
2019-02-03T03:02:15.134Z,870.46
2019-02-03T03:03:15.120Z,870.41
2019-02-03T03:04:15.096Z,870.45
2019-02-03T03:05:15.082Z,870.46
2019-02-03T03:06:15.071Z,870.43
2019-02-03T03:07:15.046Z,870.50
2019-02-03T03:08:19.324Z,870.52
2019-02-03T03:09:15.008Z,870.54
2019-02-03T03:10:15.002Z,870.56
2019-02-03T03:11:14.984Z,870.59
2019-02-03T03:12:14.950Z,870.59
2019-02-03T03:13:14.932Z,870.58
2019-02-03T03:14:14.912Z,870.58
2019-02-03T03:15:14.896Z,870.62
2019-02-03T03:16:14.881Z,870.61
2019-02-03T03:17:14.858Z,870.58
2019-02-03T03:18:14.845Z,870.59
2019-02-03T03:19:14.821Z,870.61
2019-02-03T03:20:14.800Z,870.64
2019-02-03T03:21:14.784Z,870.61
2019-02-03T03:22:14.767Z,870.66
2019-02-03T03:23:14.749Z,870.66
2019-02-03T03:24:14.731Z,870.67
2019-02-03T03:25:14.825Z,870.69
2019-02-03T03:26:14.692Z,870.71
2019-02-03T03:27:14.673Z,870.69
2019-02-03T03:28:14.659Z,870.77
2019-02-03T03:29:14.638Z,870.76
2019-02-03T03:30:14.653Z,870.75
2019-02-03T03:31:14.609Z,870.77
2019-02-03T03:32:14.585Z,870.83
2019-02-03T03:33:14.560Z,870.86
2019-02-03T03:34:14.545Z,870.91
2019-02-03T03:35:14.526Z,870.86
2019-02-03T03:36:14.508Z,870.89
2019-02-03T03:37:14.481Z,870.94
2019-02-03T03:38:14.473Z,870.91
2019-02-03T03:39:14.449Z,870.99
2019-02-03T03:40:14.435Z,870.97
2019-02-03T03:41:14.414Z,870.93
2019-02-03T03:42:14.396Z,870.94
2019-02-03T03:43:14.377Z,870.96
2019-02-03T03:44:14.361Z,870.99
2019-02-03T03:45:14.341Z,871.05
2019-02-03T03:46:14.318Z,871.04
2019-02-03T03:47:14.304Z,871.07
2019-02-03T03:48:14.288Z,871.11
2019-02-03T03:49:14.263Z,871.14
2019-02-03T03:50:14.269Z,871.14
2019-02-03T03:51:14.229Z,871.17
2019-02-03T03:52:14.208Z,871.18
2019-02-03T03:53:14.187Z,871.19
2019-02-03T03:54:14.171Z,871.21
2019-02-03T03:55:14.165Z,871.18
2019-02-03T03:56:14.134Z,871.24
2019-02-03T03:57:14.121Z,871.26
2019-02-03T03:58:14.094Z,871.24
2019-02-03T03:59:14.080Z,871.28
2019-02-03T04:00:14.064Z,871.31
2019-02-03T04:01:14.057Z,871.30
2019-02-03T04:02:14.024Z,871.34
2019-02-03T04:03:14.005Z,871.38
2019-02-03T04:04:16.452Z,871.37
2019-02-03T04:05:13.969Z,871.45
2019-02-03T04:06:13.949Z,871.43
2019-02-03T04:07:13.929Z,871.41
2019-02-03T04:08:13.916Z,871.40
2019-02-03T04:09:13.897Z,871.50
2019-02-03T04:10:13.873Z,871.50
2019-02-03T04:11:13.849Z,871.55
2019-02-03T04:12:13.838Z,871.49
2019-02-03T04:13:13.818Z,871.54
2019-02-03T04:14:13.798Z,871.57
2019-02-03T04:15:13.782Z,871.57
2019-02-03T04:16:13.760Z,871.59
2019-02-03T04:17:13.737Z,871.61
2019-02-03T04:18:13.725Z,871.62
2019-02-03T04:19:13.703Z,871.59
2019-02-03T04:20:13.685Z,871.67
2019-02-03T04:21:13.668Z,871.68
2019-02-03T04:22:13.642Z,871.70
2019-02-03T04:23:13.632Z,871.69
2019-02-03T04:24:13.610Z,871.73
2019-02-03T04:25:13.592Z,871.73
2019-02-03T04:26:13.571Z,871.72
2019-02-03T04:27:13.554Z,871.72
2019-02-03T04:28:13.533Z,871.72
2019-02-03T04:29:13.513Z,871.83
2019-02-03T04:30:13.705Z,871.80
2019-02-03T04:31:13.592Z,871.85
2019-02-03T04:32:13.470Z,871.84
2019-02-03T04:33:13.440Z,871.84
2019-02-03T04:34:13.424Z,871.85
2019-02-03T04:35:13.403Z,871.86
2019-02-03T04:36:13.386Z,871.86
2019-02-03T04:37:13.362Z,871.93
2019-02-03T04:38:13.344Z,871.87
2019-02-03T04:39:13.326Z,871.92
2019-02-03T04:40:13.308Z,871.90
2019-02-03T04:41:13.417Z,871.93
2019-02-03T04:42:13.285Z,871.97
2019-02-03T04:43:13.252Z,871.95
2019-02-03T04:44:13.236Z,871.96
2019-02-03T04:45:13.211Z,871.93
2019-02-03T04:46:13.193Z,871.97
2019-02-03T04:47:13.174Z,871.99
2019-02-03T04:48:13.163Z,871.96
2019-02-03T04:49:13.136Z,871.99
2019-02-03T04:50:13.124Z,871.97
2019-02-03T04:51:13.109Z,872.01
2019-02-03T04:52:13.081Z,871.98
2019-02-03T04:53:13.064Z,872.04
2019-02-03T04:54:13.047Z,872.04
2019-02-03T04:55:13.024Z,872.07
2019-02-03T04:56:13.009Z,872.04
2019-02-03T04:57:12.987Z,872.09
2019-02-03T04:58:12.981Z,872.07
2019-02-03T04:59:12.943Z,872.09
2019-02-03T05:00:12.934Z,872.16
2019-02-03T05:01:12.912Z,872.15
2019-02-03T05:02:12.893Z,872.16
2019-02-03T05:03:12.881Z,872.19
2019-02-03T05:04:12.855Z,872.17
2019-02-03T05:05:12.850Z,872.22
2019-02-03T05:06:12.820Z,872.25
2019-02-03T05:07:12.796Z,872.26
2019-02-03T05:08:12.780Z,872.29
2019-02-03T05:09:12.763Z,872.28
2019-02-03T05:10:12.740Z,872.31
2019-02-03T05:11:12.724Z,872.31
2019-02-03T05:12:12.708Z,872.33
2019-02-03T05:13:12.684Z,872.32
2019-02-03T05:14:12.665Z,872.35
2019-02-03T05:15:12.647Z,872.36
2019-02-03T05:16:12.626Z,872.38
2019-02-03T05:17:12.610Z,872.37
2019-02-03T05:18:12.590Z,872.50
2019-02-03T05:19:12.574Z,872.50
2019-02-03T05:20:12.666Z,872.50
2019-02-03T05:21:12.539Z,872.49
2019-02-03T05:22:12.537Z,872.51
2019-02-03T05:23:12.493Z,872.54
2019-02-03T05:24:12.480Z,872.61
2019-02-03T05:25:12.460Z,872.58
2019-02-03T05:26:12.436Z,872.60
2019-02-03T05:27:12.424Z,872.62
2019-02-03T05:28:12.404Z,872.67
2019-02-03T05:29:12.386Z,872.66
2019-02-03T05:30:12.370Z,872.70
2019-02-03T05:31:12.353Z,872.70
2019-02-03T05:32:12.326Z,872.75
2019-02-03T05:33:12.308Z,872.77
2019-02-03T05:34:12.289Z,872.84
2019-02-03T05:35:12.290Z,872.81
2019-02-03T05:36:12.251Z,872.83
2019-02-03T05:37:12.233Z,872.86
2019-02-03T05:38:12.215Z,872.88
2019-02-03T05:39:23.986Z,872.89
2019-02-03T05:40:12.172Z,872.86
2019-02-03T05:41:12.153Z,872.91
2019-02-03T05:42:12.136Z,872.92
2019-02-03T05:43:12.116Z,873.02
2019-02-03T05:44:12.098Z,872.98
2019-02-03T05:45:12.080Z,873.01
2019-02-03T05:46:12.058Z,873.04
2019-02-03T05:47:12.042Z,873.06
2019-02-03T05:48:12.021Z,873.05
2019-02-03T05:49:11.998Z,873.10
2019-02-03T05:50:11.991Z,873.10
2019-02-03T05:51:11.960Z,873.12
2019-02-03T05:52:11.949Z,873.15
2019-02-03T05:53:11.925Z,873.17
2019-02-03T05:54:11.910Z,873.21
2019-02-03T05:55:11.889Z,873.23
2019-02-03T05:56:11.874Z,873.21
2019-02-03T05:57:11.851Z,873.28
2019-02-03T05:58:11.834Z,873.26
2019-02-03T05:59:11.816Z,873.29
2019-02-03T06:00:11.798Z,873.33
2019-02-03T06:01:11.774Z,873.30
2019-02-03T06:02:11.758Z,873.31
2019-02-03T06:03:11.735Z,873.35
2019-02-03T06:04:11.719Z,873.33
2019-02-03T06:05:11.699Z,873.36
2019-02-03T06:06:11.681Z,873.39
2019-02-03T06:07:11.662Z,873.40
2019-02-03T06:08:11.648Z,873.42
2019-02-03T06:09:11.625Z,873.40
2019-02-03T06:10:11.610Z,873.37
2019-02-03T06:11:11.589Z,873.31
2019-02-03T06:12:11.567Z,873.38
2019-02-03T06:13:11.542Z,873.43
2019-02-03T06:14:11.529Z,873.40
2019-02-03T06:15:11.510Z,873.50
2019-02-03T06:16:11.496Z,873.46
2019-02-03T06:17:11.476Z,873.46
2019-02-03T06:18:11.452Z,873.50
2019-02-03T06:19:11.542Z,873.49
2019-02-03T06:20:11.415Z,873.48
2019-02-03T06:21:11.391Z,873.53
2019-02-03T06:22:11.377Z,873.58
2019-02-03T06:23:11.391Z,873.57
2019-02-03T06:24:11.335Z,873.64
2019-02-03T06:25:11.320Z,873.62
2019-02-03T06:26:11.299Z,873.65
2019-02-03T06:27:11.284Z,873.60
2019-02-03T06:28:11.266Z,873.69
2019-02-03T06:29:11.240Z,873.66
2019-02-03T06:30:11.225Z,873.71
2019-02-03T06:31:14.161Z,873.73
2019-02-03T06:32:11.188Z,873.74
2019-02-03T06:33:11.170Z,873.81
2019-02-03T06:34:11.147Z,873.75
2019-02-03T06:35:11.126Z,873.76
2019-02-03T06:36:11.113Z,873.80
2019-02-03T06:37:11.092Z,873.83
2019-02-03T06:38:11.075Z,873.90
2019-02-03T06:39:11.056Z,873.91
2019-02-03T06:40:11.036Z,873.92
2019-02-03T06:41:11.037Z,873.89
2019-02-03T06:42:10.989Z,873.95
2019-02-03T06:43:10.974Z,873.95
2019-02-03T06:44:10.958Z,873.98
2019-02-03T06:45:10.937Z,874.00
2019-02-03T06:46:10.922Z,874.03
2019-02-03T06:47:10.896Z,874.05
2019-02-03T06:48:10.883Z,874.03
2019-02-03T06:49:10.859Z,874.09
2019-02-03T06:50:10.844Z,874.11
2019-02-03T06:51:10.821Z,874.13
2019-02-03T06:52:10.806Z,874.19
2019-02-03T06:53:10.782Z,874.15
2019-02-03T06:54:10.765Z,874.13
2019-02-03T06:55:10.748Z,874.22
2019-02-03T06:56:10.736Z,874.20
2019-02-03T06:57:10.712Z,874.25
2019-02-03T06:58:10.693Z,874.24
2019-02-03T06:59:10.672Z,874.27
2019-02-03T07:00:10.653Z,874.30
2019-02-03T07:01:10.629Z,874.29
2019-02-03T07:02:10.622Z,874.35
2019-02-03T07:03:10.597Z,874.42
2019-02-03T07:04:10.585Z,874.40
2019-02-03T07:05:10.556Z,874.41
2019-02-03T07:06:10.538Z,874.45
2019-02-03T07:07:10.517Z,874.47
2019-02-03T07:08:10.496Z,874.46
2019-02-03T07:09:10.482Z,874.48
2019-02-03T07:10:10.462Z,874.53
2019-02-03T07:11:10.438Z,874.56
2019-02-03T07:12:10.424Z,874.60
2019-02-03T07:13:10.406Z,874.58
2019-02-03T07:14:10.384Z,874.62
2019-02-03T07:15:10.370Z,874.67
2019-02-03T07:16:10.345Z,874.70
2019-02-03T07:17:10.325Z,874.69
2019-02-03T07:18:10.312Z,874.71
2019-02-03T07:19:10.372Z,874.72
2019-02-03T07:20:10.269Z,874.77
2019-02-03T07:21:10.251Z,874.81
2019-02-03T07:22:10.233Z,874.78
2019-02-03T07:23:10.215Z,874.81
2019-02-03T07:24:10.196Z,874.86
2019-02-03T07:25:10.178Z,874.82
2019-02-03T07:26:10.195Z,874.87
2019-02-03T07:27:12.010Z,874.90
2019-02-03T07:28:10.119Z,874.96
2019-02-03T07:29:10.095Z,874.97
2019-02-03T07:30:10.082Z,874.99
2019-02-03T07:31:10.069Z,875.00
2019-02-03T07:32:10.074Z,875.02
2019-02-03T07:33:10.022Z,875.05
2019-02-03T07:34:10.027Z,875.08
2019-02-03T07:35:09.986Z,875.03
2019-02-03T07:36:09.964Z,875.04
2019-02-03T07:37:09.946Z,875.08
2019-02-03T07:38:10.739Z,875.07
2019-02-03T07:39:09.915Z,875.06
2019-02-03T07:40:12.678Z,875.11
2019-02-03T07:41:09.875Z,875.15
2019-02-03T07:42:09.852Z,875.16
2019-02-03T07:43:09.830Z,875.18
2019-02-03T07:44:09.818Z,875.17
2019-02-03T07:45:09.795Z,875.17
2019-02-03T07:46:09.772Z,875.20
2019-02-03T07:47:09.757Z,875.24
2019-02-03T07:48:09.742Z,875.22
2019-02-03T07:49:09.720Z,875.26
2019-02-03T07:50:09.694Z,875.26
2019-02-03T07:51:09.680Z,875.27
2019-02-03T07:52:09.666Z,875.24
2019-02-03T07:53:09.720Z,875.21
2019-02-03T07:54:09.624Z,875.25
2019-02-03T07:55:09.620Z,875.25
2019-02-03T07:56:09.590Z,875.28
2019-02-03T07:57:09.561Z,875.33
2019-02-03T07:58:12.314Z,875.34
2019-02-03T07:59:09.533Z,875.31
2019-02-03T08:00:09.513Z,875.37
2019-02-03T08:01:09.490Z,875.37
2019-02-03T08:02:09.474Z,875.34
2019-02-03T08:03:09.459Z,875.37
2019-02-03T08:04:09.432Z,875.33
2019-02-03T08:05:09.417Z,875.37
2019-02-03T08:06:09.398Z,875.36
2019-02-03T08:07:09.381Z,875.40
2019-02-03T08:08:09.366Z,875.42
2019-02-03T08:09:09.339Z,875.42
2019-02-03T08:10:09.325Z,875.44
2019-02-03T08:11:09.305Z,875.43
2019-02-03T08:12:09.286Z,875.45
2019-02-03T08:13:09.261Z,875.50
2019-02-03T08:14:09.243Z,875.51
2019-02-03T08:15:09.227Z,875.56
2019-02-03T08:16:09.207Z,875.55
2019-02-03T08:17:09.187Z,875.54
2019-02-03T08:18:09.167Z,875.55
2019-02-03T08:19:09.159Z,875.60
2019-02-03T08:20:09.132Z,875.62
2019-02-03T08:21:09.113Z,875.64
2019-02-03T08:22:09.095Z,875.66
2019-02-03T08:23:09.078Z,875.67
2019-02-03T08:24:09.056Z,875.66
2019-02-03T08:25:09.034Z,875.68
2019-02-03T08:26:09.014Z,875.70
2019-02-03T08:27:09.007Z,875.73
2019-02-03T08:28:08.981Z,875.76
2019-02-03T08:29:08.963Z,875.77
2019-02-03T08:30:08.940Z,875.78
2019-02-03T08:31:08.930Z,875.84
2019-02-03T08:32:08.902Z,875.81
2019-02-03T08:33:08.895Z,875.83
2019-02-03T08:34:08.871Z,875.85
2019-02-03T08:35:08.856Z,875.81
2019-02-03T08:36:08.835Z,875.87
2019-02-03T08:37:08.813Z,875.88
2019-02-03T08:38:08.791Z,875.89
2019-02-03T08:39:08.780Z,875.92
2019-02-03T08:40:08.760Z,875.96
2019-02-03T08:41:08.741Z,875.95
2019-02-03T08:42:08.721Z,876.00
2019-02-03T08:43:08.709Z,875.95
2019-02-03T08:44:08.689Z,875.97
2019-02-03T08:45:08.673Z,875.97
2019-02-03T08:46:08.692Z,875.99
2019-02-03T08:47:08.632Z,876.00
2019-02-03T08:48:08.612Z,876.00
2019-02-03T08:49:08.590Z,876.04
2019-02-03T08:50:08.635Z,876.04
2019-02-03T08:51:08.554Z,876.03
2019-02-03T08:52:08.551Z,876.06
2019-02-03T08:53:08.513Z,876.09
2019-02-03T08:54:08.491Z,876.11
2019-02-03T08:55:08.485Z,876.14
2019-02-03T08:56:08.457Z,876.14
2019-02-03T08:57:08.435Z,876.15
2019-02-03T08:58:08.415Z,876.17
2019-02-03T08:59:08.412Z,876.23
2019-02-03T09:00:08.388Z,876.21
2019-02-03T09:01:08.363Z,876.22
2019-02-03T09:02:08.346Z,876.24
2019-02-03T09:03:08.841Z,876.29
2019-02-03T09:04:08.310Z,876.31
2019-02-03T09:05:08.295Z,876.31
2019-02-03T09:06:08.270Z,876.35
2019-02-03T09:07:08.258Z,876.36
2019-02-03T09:08:08.235Z,876.36
2019-02-03T09:09:08.214Z,876.31
2019-02-03T09:10:08.191Z,876.36
2019-02-03T09:11:08.180Z,876.34
2019-02-03T09:12:08.161Z,876.40
2019-02-03T09:13:08.141Z,876.43
2019-02-03T09:14:08.118Z,876.40
2019-02-03T09:15:08.107Z,876.46
2019-02-03T09:16:08.086Z,876.42
2019-02-03T09:17:08.068Z,876.51
2019-02-03T09:18:08.041Z,876.51
2019-02-03T09:19:08.029Z,876.50
2019-02-03T09:20:08.007Z,876.50
2019-02-03T09:21:07.992Z,876.55
2019-02-03T09:22:07.971Z,876.62
2019-02-03T09:23:07.951Z,876.60
2019-02-03T09:24:07.937Z,876.63
2019-02-03T09:25:07.944Z,876.61
2019-02-03T09:26:08.663Z,876.64
2019-02-03T09:27:07.882Z,876.64
2019-02-03T09:28:07.858Z,876.65
2019-02-03T09:29:07.843Z,876.66
2019-02-03T09:30:07.836Z,876.66
2019-02-03T09:31:07.804Z,876.71
2019-02-03T09:32:07.787Z,876.71
2019-02-03T09:33:07.765Z,876.72
2019-02-03T09:34:07.767Z,876.77
2019-02-03T09:35:07.739Z,876.77
2019-02-03T09:36:07.709Z,876.73
2019-02-03T09:37:07.706Z,876.80
2019-02-03T09:38:07.678Z,876.76
2019-02-03T09:39:07.653Z,876.78
2019-02-03T09:40:07.653Z,876.78
2019-02-03T09:41:07.620Z,876.73
2019-02-03T09:42:07.600Z,876.78
2019-02-03T09:43:07.612Z,876.80
2019-02-03T09:44:07.563Z,876.79
2019-02-03T09:45:07.544Z,876.82
2019-02-03T09:46:07.530Z,876.84
2019-02-03T09:47:07.529Z,876.87
2019-02-03T09:48:07.489Z,876.86
2019-02-03T09:49:07.471Z,876.88
2019-02-03T09:50:07.441Z,876.93
2019-02-03T09:51:07.433Z,876.92
2019-02-03T09:52:07.413Z,876.95
2019-02-03T09:53:07.398Z,876.99
2019-02-03T09:54:07.379Z,877.02
2019-02-03T09:55:07.359Z,877.03
2019-02-03T09:56:07.347Z,877.05
2019-02-03T09:57:07.323Z,877.08
2019-02-03T09:58:07.302Z,877.06
2019-02-03T09:59:07.285Z,877.10
2019-02-03T10:00:07.266Z,877.09
2019-02-03T10:01:07.251Z,877.11
2019-02-03T10:02:07.230Z,877.14
2019-02-03T10:03:07.212Z,877.13
2019-02-03T10:04:07.214Z,877.14
2019-02-03T10:05:07.178Z,877.13
2019-02-03T10:06:07.158Z,877.19
2019-02-03T10:07:07.137Z,877.21
2019-02-03T10:08:07.125Z,877.25
2019-02-03T10:09:07.105Z,877.21
2019-02-03T10:10:07.083Z,877.22
2019-02-03T10:11:12.069Z,877.28
2019-02-03T10:12:07.048Z,877.24
2019-02-03T10:13:07.032Z,877.24
2019-02-03T10:14:07.013Z,877.29
2019-02-03T10:15:06.995Z,877.28
2019-02-03T10:16:06.980Z,877.28
2019-02-03T10:17:06.954Z,877.30
2019-02-03T10:18:06.941Z,877.33
2019-02-03T10:19:06.920Z,877.28
2019-02-03T10:20:06.905Z,877.33
2019-02-03T10:21:06.880Z,877.31
2019-02-03T10:22:06.864Z,877.38
2019-02-03T10:23:06.841Z,877.40
2019-02-03T10:24:06.828Z,877.37
2019-02-03T10:25:06.810Z,877.37
2019-02-03T10:26:06.797Z,877.38
2019-02-03T10:27:06.774Z,877.41
2019-02-03T10:28:06.760Z,877.42
2019-02-03T10:29:06.736Z,877.47
2019-02-03T10:30:06.722Z,877.48
2019-02-03T10:31:06.697Z,877.50
2019-02-03T10:32:06.683Z,877.53
2019-02-03T10:33:06.664Z,877.54
2019-02-03T10:34:06.645Z,877.53
2019-02-03T10:35:06.629Z,877.54
2019-02-03T10:36:06.608Z,877.59
2019-02-03T10:37:06.592Z,877.59
2019-02-03T10:38:06.572Z,877.56
2019-02-03T10:39:06.552Z,877.57
2019-02-03T10:40:06.533Z,877.61
2019-02-03T10:41:06.516Z,877.66
2019-02-03T10:42:06.504Z,877.61
2019-02-03T10:43:06.479Z,877.64
2019-02-03T10:44:06.463Z,877.62
2019-02-03T10:45:06.442Z,877.66
2019-02-03T10:46:06.430Z,877.64
2019-02-03T10:47:06.413Z,877.68
2019-02-03T10:48:06.385Z,877.70
2019-02-03T10:49:06.369Z,877.69
2019-02-03T10:50:06.355Z,877.65
2019-02-03T10:51:06.339Z,877.72
2019-02-03T10:52:06.319Z,877.66
2019-02-03T10:53:06.297Z,877.67
2019-02-03T10:54:06.283Z,877.73
2019-02-03T10:55:06.262Z,877.70
2019-02-03T10:56:06.247Z,877.77
2019-02-03T10:57:06.227Z,877.77
2019-02-03T10:58:06.215Z,877.76
2019-02-03T10:59:06.192Z,877.77
2019-02-03T11:01:06.152Z,877.81
2019-02-03T11:02:06.134Z,877.82
2019-02-03T11:03:06.115Z,877.84
2019-02-03T11:04:06.098Z,877.88
2019-02-03T11:05:06.082Z,877.86
2019-02-03T11:06:06.058Z,877.87
2019-02-03T11:07:06.043Z,877.83
2019-02-03T11:08:06.030Z,877.86
2019-02-03T11:09:06.019Z,877.92
2019-02-03T11:10:05.992Z,877.89
2019-02-03T11:11:05.971Z,877.89
2019-02-03T11:12:05.949Z,877.91
2019-02-03T11:13:05.933Z,877.93
2019-02-03T11:14:05.916Z,877.97
2019-02-03T11:15:05.900Z,877.99
2019-02-03T11:16:05.879Z,878.00
2019-02-03T11:17:05.876Z,878.01
2019-02-03T11:18:05.844Z,878.02
2019-02-03T11:19:05.825Z,878.02
2019-02-03T11:20:05.800Z,878.04
2019-02-03T11:21:05.792Z,878.08
2019-02-03T11:22:05.773Z,878.05
2019-02-03T11:23:05.753Z,878.08
2019-02-03T11:24:05.748Z,878.05
2019-02-03T11:25:05.718Z,878.12
2019-02-03T11:26:05.699Z,878.09
2019-02-03T11:27:05.682Z,878.16
2019-02-03T11:28:05.661Z,878.20
2019-02-03T11:29:05.641Z,878.17
2019-02-03T11:30:05.635Z,878.21
2019-02-03T11:31:05.613Z,878.19
2019-02-03T11:32:05.593Z,878.17
2019-02-03T11:33:07.329Z,878.18
2019-02-03T11:34:05.555Z,878.20
2019-02-03T11:35:05.541Z,878.24
2019-02-03T11:36:05.517Z,878.21
2019-02-03T11:37:05.503Z,878.23
2019-02-03T11:38:05.523Z,878.27
2019-02-03T11:39:05.464Z,878.27
2019-02-03T11:40:05.448Z,878.29
2019-02-03T11:41:05.428Z,878.31
2019-02-03T11:42:05.410Z,878.30
2019-02-03T11:43:05.393Z,878.33
2019-02-03T11:44:05.380Z,878.32
2019-02-03T11:45:05.361Z,878.31
2019-02-03T11:46:05.338Z,878.28
2019-02-03T11:47:05.325Z,878.33
2019-02-03T11:48:05.306Z,878.35
2019-02-03T11:49:05.284Z,878.36
2019-02-03T11:50:05.268Z,878.40
2019-02-03T11:51:05.256Z,878.40
2019-02-03T11:52:05.226Z,878.44
2019-02-03T11:53:05.211Z,878.44
2019-02-03T11:54:05.198Z,878.40
2019-02-03T11:55:05.192Z,878.40
2019-02-03T11:56:05.168Z,878.44
2019-02-03T11:57:05.144Z,878.47
2019-02-03T11:58:05.131Z,878.46
2019-02-03T11:59:05.110Z,878.43
2019-02-03T12:00:05.094Z,878.49
2019-02-03T12:01:05.076Z,878.52
2019-02-03T12:02:05.059Z,878.54
2019-02-03T12:03:05.037Z,878.51
2019-02-03T12:04:05.018Z,878.52
2019-02-03T12:05:05.004Z,878.57
2019-02-03T12:06:05.002Z,878.56
2019-02-03T12:07:04.962Z,878.55
2019-02-03T12:08:04.952Z,878.56
2019-02-03T12:09:04.932Z,878.61
2019-02-03T12:10:04.912Z,878.62
2019-02-03T12:11:04.909Z,878.66
2019-02-03T12:12:04.881Z,878.65
2019-02-03T12:13:04.865Z,878.67
2019-02-03T12:14:04.850Z,878.66
2019-02-03T12:15:04.825Z,878.69
2019-02-03T12:16:04.810Z,878.73
2019-02-03T12:17:04.792Z,878.74
2019-02-03T12:18:04.777Z,878.72
2019-02-03T12:19:04.754Z,878.76
2019-02-03T12:20:04.740Z,878.73
2019-02-03T12:21:04.725Z,878.77
2019-02-03T12:22:04.707Z,878.76
2019-02-03T12:23:04.688Z,878.75
2019-02-03T12:24:04.704Z,878.75
2019-02-03T12:25:04.649Z,878.78
2019-02-03T12:26:06.802Z,878.78
2019-02-03T12:27:04.617Z,878.80
2019-02-03T12:28:04.600Z,878.81
2019-02-03T12:29:04.582Z,878.82